America, Illinois
Current Conditions -  °F | °C
As of 12:35 AM on Friday 31 Oct 2014 (Local Time) from KCIR Reporting Station
Light Rain Light Rain  
Wind Chill: 55°   Ceiling: 6000
Heat Index: 55°   Visibility: 10mi
Dew Point: 51°   Wind: 0mph
Humidity: 87%   Direction: NA
Pressure: 30.01"   Gusts: NA
Location:  37.1575°N, 89.1781°W
Report Text: KCIR 310535Z AUTO 00000KT 10SM -RA OVC060 13/11 A3001 RMK AO2 T01260105
Loading
Personal Weather Stations






























Interactive Weather Map
Tropical Storm Tracking
New forecast layout! Learn more

10-Day Weather Forecast

Advertisements
Track Severe Weather on mobile